Briefing drone pour Marsannay-la-cote

Rechercher une autre localisation

Conditions de vol :


Nous sommes le : Samedi 21 mai 2022
Il est 21:53 UTC (23:53 LT)

Lever de soleil : 03:30 UTC (05:30 LT)
Coucher de soleil : 19:42 UTC (21:42 LT)

Météo

L'essentiel des conditions de vol

VIGILANCE MÉTÉO FRANCE - Côte-dOr (21)
Pas de vigilances particulieres
METAR de LFSD
LFSD 212130Z AUTO 02004KT 340V060 CAVOK 16/11 Q1018

Date d'émission: 21/05/2022
Heure d'émission: 21:30 UTC
Vent: 020° (variable du 340° au 060°) pour 4 KT (7 km/h)
Visibilité horizontale: > 10 km
Plafond : Plafond et visibilité OK (CAVOK)
Température: 16 °C
Point de rosée: 11 °C
Humidité: 72%
Pression (QNH): 1018 hPa
TAF de LFSD
LFSD 010600Z 0100/0124 CNL

Conditions prévues :

Heure d'émission : Bulletin éffectué le 01 à 00:00 UTC
Prévision : Valide du 01 a 00:00 UTC au 01 a 23:59 UTC
Nuages : à 0ft (0 m)
WEBCAM POUR MARSANNAY-LA-COTE

Réglementation

Voler en sécurité

CARTES AERONAUTIQUE 1/500.000
CARTES VAC (LFSD)
SUP AIP




Chargement des AIP...
NOTAM (MARSANNAY-LA-COTE + Terrain à proximité / FIR )




Chargement des NOTAMS...
CONTACT PREFECTURE 21
Côte-dOr (21) : pref-drone@cote-dor.gouv.fr


Avertissement : Les données mises à disposition sont indicatives. Oxygène Drone ne pourra être tenu responsable de dégâts causés aux biens et aux personnes.